Time;durP1;ratioP1;P1;durP2;ratioP2;P2;SDS_P1;SDS_P2;PMS_P1;PMS_P2;Temp;Humidity;BMP_temperature;BMP_pressure;BME280_temperature;BME280_humidity;BME280_pressure;Samples;Min_cycle;Max_cycle;Signal;HPM_P1;HPM_P2
2022/10/24 00:00:41;;;;;;;;;;;;;;;9.12;74.70;101733.44;1729993;82;27120;-58
2022/10/24 00:03:10;;;;;;;;;;;;;;;9.05;74.46;101734.35;1709557;83;25422;-58
2022/10/24 00:05:38;;;;;;;;;;;;;;;9.00;74.09;101740.03;1710383;84;25672;-58
2022/10/24 00:08:05;;;;;;;;;;;;;;;8.95;74.35;101740.80;1698337;82;25819;-59
2022/10/24 00:10:31;;;;;;;;;;;;;;;8.97;74.69;101742.02;1700197;82;25713;-58
2022/10/24 00:12:58;;;;;;;;;;;;;;;8.98;75.03;101745.09;1682760;84;27476;-60
2022/10/24 00:15:25;;;;;;;;;;;;;;;8.97;74.89;101742.91;1711995;82;25793;-59
2022/10/24 00:17:51;;;;;;;;;;;;;;;8.97;74.69;101743.37;1720701;82;26332;-59
2022/10/24 00:20:17;;;;;;;;;;;;;;;8.93;74.75;101741.38;1711397;82;25786;-58
2022/10/24 00:22:44;;;;;;;;;;;;;;;8.85;74.63;101734.31;1687330;81;25799;-58
2022/10/24 00:25:10;;;;;;;;;;;;;;;8.74;74.49;101732.34;1682549;84;27492;-58
2022/10/24 00:27:37;;;;;;;;;;;;;;;8.65;74.58;101730.27;1685968;82;25708;-58
2022/10/24 00:30:05;;;;;;;;;;;;;;;8.60;74.60;101719.84;1721323;82;25779;-57
2022/10/24 00:32:32;;;;;;;;;;;;;;;8.56;75.00;101716.49;1741121;81;25802;-58
2022/10/24 00:34:58;;;;;;;;;;;;;;;8.57;75.15;101718.69;1722408;81;25722;-57
2022/10/24 00:37:25;;;;;;;;;;;;;;;8.59;75.33;101713.62;1734088;82;27514;-57
2022/10/24 00:39:51;;;;;;;;;;;;;;;8.63;75.61;101712.94;1715490;82;25732;-57
2022/10/24 00:42:18;;;;;;;;;;;;;;;8.65;75.72;101706.12;1733474;82;25676;-57
2022/10/24 00:44:46;;;;;;;;;;;;;;;8.67;75.73;101706.39;1698429;82;25853;-57
2022/10/24 00:47:18;;;;;;;;;;;;;;;8.71;75.92;101707.93;1729473;82;27308;-57
2022/10/24 00:49:59;;;;;;;;;;;;;;;8.73;75.76;101709.16;1696023;83;28360;-58
2022/10/24 00:52:27;;;;;;;;;;;;;;;8.72;75.55;101710.12;1697471;83;25440;-57
2022/10/24 00:54:55;;;;;;;;;;;;;;;8.66;75.33;101710.03;1706085;83;25697;-59
2022/10/24 00:57:39;;;;;;;;;;;;;;;8.61;75.30;101709.00;1728800;83;26139;-59
2022/10/24 01:00:09;;;;;;;;;;;;;;;8.62;75.49;101711.22;1671975;83;25774;-58
2022/10/24 01:02:37;;;;;;;;;;;;;;;8.67;75.64;101709.57;1671679;84;28346;-58
2022/10/24 01:05:05;;;;;;;;;;;;;;;8.68;75.57;101707.27;1683864;84;26661;-57
2022/10/24 01:07:46;;;;;;;;;;;;;;;8.69;75.53;101711.19;1724044;83;25673;-58
2022/10/24 01:10:40;;;;;;;;;;;;;;;8.69;75.50;101709.84;1700753;82;25951;-59
2022/10/24 01:13:35;;;;;;;;;;;;;;;8.71;75.66;101709.27;1671045;85;25728;-58
2022/10/24 01:16:20;;;;;;;;;;;;;;;8.76;75.77;101711.16;1671688;83;27637;-58
2022/10/24 01:18:50;;;;;;;;;;;;;;;8.77;75.78;101702.15;1705541;82;25743;-58
2022/10/24 01:21:32;;;;;;;;;;;;;;;8.77;75.50;101703.48;1732868;82;25695;-59
2022/10/24 01:24:23;;;;;;;;;;;;;;;8.74;75.16;101702.34;1728047;83;26335;-59
2022/10/24 01:27:13;;;;;;;;;;;;;;;8.70;75.12;101708.89;1672713;83;26111;-59
2022/10/24 01:29:49;;;;;;;;;;;;;;;8.67;75.31;101718.47;1695290;83;27723;-58
2022/10/24 01:32:36;;;;;;;;;;;;;;;8.65;75.28;101720.88;1728787;83;25816;-59
2022/10/24 01:35:22;;;;;;;;;;;;;;;8.60;74.97;101717.16;1700912;83;25810;-58
2022/10/24 01:38:05;;;;;;;;;;;;;;;8.54;74.57;101732.31;1695149;83;25963;-58
2022/10/24 01:40:49;;;;;;;;;;;;;;;8.43;74.38;101719.55;1707074;83;25770;-58
2022/10/24 01:43:22;;;;;;;;;;;;;;;8.35;74.34;101728.09;1703443;83;27506;-59
2022/10/24 01:45:52;;;;;;;;;;;;;;;8.26;74.30;101722.83;1680858;83;25788;-58
2022/10/24 01:48:20;;;;;;;;;;;;;;;8.19;74.35;101721.50;1697894;84;25739;-58
2022/10/24 01:50:49;;;;;;;;;;;;;;;8.11;74.22;101717.95;1706735;83;25850;-58
2022/10/24 01:53:16;;;;;;;;;;;;;;;8.04;74.21;101722.48;1696186;83;26542;-57
2022/10/24 01:55:44;;;;;;;;;;;;;;;7.95;74.11;101723.90;1717669;82;27633;-57
2022/10/24 01:58:10;;;;;;;;;;;;;;;7.87;74.13;101728.87;1721319;81;25829;-57
2022/10/24 02:00:37;;;;;;;;;;;;;;;7.80;74.10;101733.75;1694056;83;25729;-59
2022/10/24 02:03:28;;;;;;;;;;;;;;;7.72;74.07;101730.22;1727871;82;26164;-58
2022/10/24 02:05:58;;;;;;;;;;;;;;;7.66;74.16;101733.28;1739082;81;27392;-60
2022/10/24 02:08:28;;;;;;;;;;;;;;;7.59;74.14;101730.56;1742756;82;27542;-58
2022/10/24 02:10:58;;;;;;;;;;;;;;;7.51;74.25;101737.74;1708919;82;26197;-58
2022/10/24 02:13:44;;;;;;;;;;;;;;;7.44;74.26;101733.23;1718052;82;25783;-58
2022/10/24 02:16:14;;;;;;;;;;;;;;;7.37;74.25;101741.25;1741902;82;25906;-58
2022/10/24 02:18:41;;;;;;;;;;;;;;;7.30;74.25;101738.06;1742676;81;25903;-58
2022/10/24 02:21:13;;;;;;;;;;;;;;;7.25;74.27;101736.61;1704262;81;27443;-58
2022/10/24 02:23:52;;;;;;;;;;;;;;;7.21;74.46;101737.27;1720806;82;25760;-58
2022/10/24 02:26:25;;;;;;;;;;;;;;;7.18;74.76;101737.44;1703658;82;25694;-58
2022/10/24 02:28:57;;;;;;;;;;;;;;;7.15;74.86;101732.30;1684531;82;26792;-59
2022/10/24 02:31:26;;;;;;;;;;;;;;;7.12;74.74;101728.45;1700034;83;26483;-58
2022/10/24 02:33:54;;;;;;;;;;;;;;;7.09;74.95;101728.62;1685952;82;28275;-60
2022/10/24 02:36:23;;;;;;;;;;;;;;;7.03;74.93;101722.69;1691492;82;26007;-58
2022/10/24 02:38:52;;;;;;;;;;;;;;;6.99;75.05;101723.80;1713194;83;25795;-59
2022/10/24 02:41:22;;;;;;;;;;;;;;;6.96;75.03;101728.47;1709326;82;25902;-58
2022/10/24 02:43:50;;;;;;;;;;;;;;;6.92;75.05;101727.79;1719745;82;25777;-58
2022/10/24 02:46:18;;;;;;;;;;;;;;;6.91;75.16;101729.23;1735327;82;27537;-58
2022/10/24 02:48:48;;;;;;;;;;;;;;;6.87;75.27;101729.88;1736868;82;25842;-59
2022/10/24 02:51:16;;;;;;;;;;;;;;;6.84;75.23;101728.25;1696821;82;25684;-59
2022/10/24 02:53:43;;;;;;;;;;;;;;;6.80;75.27;101723.17;1720044;82;26557;-58
2022/10/24 02:56:10;;;;;;;;;;;;;;;6.78;75.30;101725.06;1733290;82;25594;-57
2022/10/24 02:58:36;;;;;;;;;;;;;;;6.74;75.17;101724.38;1728356;82;27549;-59
2022/10/24 03:01:03;;;;;;;;;;;;;;;6.69;75.17;101723.77;1728927;82;25760;-58
2022/10/24 03:03:29;;;;;;;;;;;;;;;6.65;75.27;101718.22;1723433;82;25702;-57
2022/10/24 03:05:56;;;;;;;;;;;;;;;6.63;75.34;101720.11;1680793;82;25907;-58
2022/10/24 03:08:22;;;;;;;;;;;;;;;6.60;75.36;101716.27;1728900;82;25776;-58
2022/10/24 03:10:48;;;;;;;;;;;;;;;6.60;75.43;101713.59;1707318;82;27449;-58
2022/10/24 03:13:15;;;;;;;;;;;;;;;6.57;75.39;101708.83;1705612;82;25624;-58
2022/10/24 03:15:41;;;;;;;;;;;;;;;6.56;75.42;101711.11;1734624;82;25726;-58
2022/10/24 03:18:08;;;;;;;;;;;;;;;6.54;75.41;101710.33;1735647;82;26524;-58
2022/10/24 03:20:34;;;;;;;;;;;;;;;6.51;75.45;101706.48;1732913;82;26017;-58
2022/10/24 03:23:01;;;;;;;;;;;;;;;6.51;75.47;101712.31;1736825;82;28383;-58
2022/10/24 03:25:27;;;;;;;;;;;;;;;6.46;75.44;101701.88;1720857;82;25827;-58
2022/10/24 03:27:54;;;;;;;;;;;;;;;6.44;75.48;101706.94;1684755;82;25905;-58
2022/10/24 03:30:20;;;;;;;;;;;;;;;6.41;75.55;101707.94;1736385;82;25846;-58
2022/10/24 03:32:47;;;;;;;;;;;;;;;6.38;75.62;101703.64;1732118;82;25709;-58
2022/10/24 03:35:13;;;;;;;;;;;;;;;6.39;75.69;101708.53;1683144;82;29677;-58
2022/10/24 03:37:39;;;;;;;;;;;;;;;6.37;75.70;101704.58;1691579;84;25643;-58
2022/10/24 03:40:08;;;;;;;;;;;;;;;6.33;75.52;101707.05;1704258;84;25836;-58
2022/10/24 03:42:35;;;;;;;;;;;;;;;6.31;75.64;101705.42;1675297;85;25752;-58
2022/10/24 03:45:01;;;;;;;;;;;;;;;6.32;75.63;101696.46;1705457;82;25664;-57
2022/10/24 03:47:28;;;;;;;;;;;;;;;6.32;75.86;101697.31;1705888;82;27510;-57
2022/10/24 03:49:54;;;;;;;;;;;;;;;6.32;75.74;101682.61;1726790;82;25724;-58
2022/10/24 03:52:20;;;;;;;;;;;;;;;6.34;75.76;101680.72;1712987;82;25726;-59
2022/10/24 03:54:49;;;;;;;;;;;;;;;6.36;75.85;101684.63;1711335;82;26036;-60
2022/10/24 03:57:15;;;;;;;;;;;;;;;6.39;75.82;101683.14;1737410;82;27393;-61
2022/10/24 03:59:42;;;;;;;;;;;;;;;6.41;76.01;101684.77;1690835;84;27514;-58
2022/10/24 04:02:08;;;;;;;;;;;;;;;6.42;76.05;101679.81;1719923;82;25876;-58
2022/10/24 04:04:35;;;;;;;;;;;;;;;6.42;76.21;101686.50;1708116;82;25706;-59
2022/10/24 04:07:04;;;;;;;;;;;;;;;6.41;76.65;101682.09;1708249;82;26491;-59
2022/10/24 04:09:30;;;;;;;;;;;;;;;6.41;76.92;101676.75;1710246;82;25679;-59
2022/10/24 04:11:56;;;;;;;;;;;;;;;6.41;76.96;101675.41;1687740;83;27545;-59
2022/10/24 04:14:23;;;;;;;;;;;;;;;6.47;77.00;101676.88;1683080;84;26018;-59
2022/10/24 04:16:49;;;;;;;;;;;;;;;6.48;77.02;101673.72;1708346;82;25784;-58
2022/10/24 04:19:17;;;;;;;;;;;;;;;6.47;76.93;101670.20;1705921;82;25825;-59
2022/10/24 04:21:44;;;;;;;;;;;;;;;6.48;77.22;101667.91;1683223;83;25735;-60
2022/10/24 04:24:11;;;;;;;;;;;;;;;6.47;77.29;101671.98;1733698;82;27471;-59
2022/10/24 04:26:38;;;;;;;;;;;;;;;6.47;77.72;101667.52;1732951;82;25816;-59
2022/10/24 04:29:04;;;;;;;;;;;;;;;6.55;78.04;101665.73;1711150;84;25746;-58
2022/10/24 04:31:31;;;;;;;;;;;;;;;6.64;78.17;101655.84;1726196;82;25797;-59
2022/10/24 04:33:57;;;;;;;;;;;;;;;6.71;78.00;101660.37;1704056;82;25777;-58
2022/10/24 04:36:24;;;;;;;;;;;;;;;6.79;78.10;101659.94;1697051;82;27504;-58
2022/10/24 04:38:50;;;;;;;;;;;;;;;6.80;77.54;101662.50;1708477;82;25806;-59
2022/10/24 04:41:17;;;;;;;;;;;;;;;6.83;77.97;101655.65;1713201;82;25844;-58
2022/10/24 04:43:44;;;;;;;;;;;;;;;6.84;77.77;101651.15;1737183;82;26652;-60
2022/10/24 04:46:11;;;;;;;;;;;;;;;6.87;77.83;101654.50;1716320;82;25752;-61
2022/10/24 04:48:37;;;;;;;;;;;;;;;6.90;77.83;101660.17;1707806;83;27506;-58
2022/10/24 04:51:04;;;;;;;;;;;;;;;6.93;77.96;101663.98;1717506;82;25738;-58
2022/10/24 04:53:31;;;;;;;;;;;;;;;6.97;77.92;101670.89;1700285;82;25741;-58
2022/10/24 04:55:57;;;;;;;;;;;;;;;7.00;77.95;101673.36;1699022;82;25934;-59
2022/10/24 04:58:24;;;;;;;;;;;;;;;7.02;78.05;101675.48;1720946;82;25723;-59
2022/10/24 05:00:50;;;;;;;;;;;;;;;7.08;78.05;101682.77;1732632;82;27470;-59
2022/10/24 05:03:17;;;;;;;;;;;;;;;7.13;77.98;101690.88;1720024;82;25732;-59
2022/10/24 05:05:45;;;;;;;;;;;;;;;7.16;77.75;101681.34;1707002;82;25783;-58
2022/10/24 05:08:12;;;;;;;;;;;;;;;7.17;77.17;101679.06;1717834;82;26613;-59
2022/10/24 05:10:38;;;;;;;;;;;;;;;7.10;76.99;101687.07;1720428;82;25761;-58
2022/10/24 05:13:05;;;;;;;;;;;;;;;7.02;76.77;101688.86;1707815;82;27457;-58
2022/10/24 05:15:32;;;;;;;;;;;;;;;6.95;76.68;101690.66;1718452;82;25810;-59
2022/10/24 05:17:59;;;;;;;;;;;;;;;6.92;76.75;101693.51;1679527;82;25766;-58
2022/10/24 05:20:26;;;;;;;;;;;;;;;6.93;76.77;101697.91;1687751;82;25942;-59
2022/10/24 05:22:52;;;;;;;;;;;;;;;6.96;76.99;101704.39;1736784;82;25961;-58
2022/10/24 05:25:19;;;;;;;;;;;;;;;7.00;77.13;101707.30;1735541;82;27474;-58
2022/10/24 05:27:46;;;;;;;;;;;;;;;7.10;77.18;101721.86;1734725;82;25894;-57
2022/10/24 05:30:13;;;;;;;;;;;;;;;7.18;77.30;101724.06;1733389;82;25404;-58
2022/10/24 05:32:39;;;;;;;;;;;;;;;7.25;77.56;101720.09;1711633;82;27944;-57
2022/10/24 05:35:07;;;;;;;;;;;;;;;7.33;77.45;101734.34;1724702;82;25740;-59
2022/10/24 05:37:33;;;;;;;;;;;;;;;7.38;77.19;101734.95;1724855;82;27544;-59
2022/10/24 05:40:00;;;;;;;;;;;;;;;7.43;77.01;101738.20;1725637;82;26015;-59
2022/10/24 05:42:27;;;;;;;;;;;;;;;7.50;76.84;101733.34;1713245;83;26448;-58
2022/10/24 05:44:53;;;;;;;;;;;;;;;7.52;76.67;101738.98;1707232;82;25758;-60
2022/10/24 05:47:19;;;;;;;;;;;;;;;7.81;77.06;101739.03;1690007;82;25870;-58
2022/10/24 05:49:46;;;;;;;;;;;;;;;7.92;76.47;101739.70;1698219;83;27504;-60
2022/10/24 05:52:13;;;;;;;;;;;;;;;8.01;76.21;101740.08;1679597;82;25727;-58
2022/10/24 05:54:39;;;;;;;;;;;;;;;8.17;76.06;101738.65;1678918;85;25755;-58
2022/10/24 05:57:05;;;;;;;;;;;;;;;8.24;75.62;101748.02;1719909;82;25822;-58
2022/10/24 05:59:32;;;;;;;;;;;;;;;8.24;75.42;101753.38;1713609;82;25831;-58
2022/10/24 06:01:58;;;;;;;;;;;;;;;8.25;75.41;101751.93;1706035;82;27431;-58
2022/10/24 06:04:25;;;;;;;;;;;;;;;8.26;75.41;101755.49;1735494;82;25752;-58
2022/10/24 06:06:51;;;;;;;;;;;;;;;8.26;75.45;101760.85;1713935;82;25459;-58
2022/10/24 06:09:18;;;;;;;;;;;;;;;8.26;75.44;101760.36;1678826;85;25707;-59
2022/10/24 06:11:44;;;;;;;;;;;;;;;8.28;75.54;101764.31;1695349;82;25917;-58
2022/10/24 06:14:11;;;;;;;;;;;;;;;8.29;75.51;101767.38;1728197;82;27494;-58
2022/10/24 06:16:38;;;;;;;;;;;;;;;8.30;75.56;101763.24;1697421;82;26460;-59
2022/10/24 06:19:05;;;;;;;;;;;;;;;8.34;75.30;101763.91;1719421;82;25726;-58
2022/10/24 06:21:31;;;;;;;;;;;;;;;8.35;75.25;101766.09;1718631;82;25995;-58
2022/10/24 06:23:58;;;;;;;;;;;;;;;8.36;75.26;101765.14;1678858;85;26423;-58
2022/10/24 06:26:25;;;;;;;;;;;;;;;8.42;75.48;101762.09;1679362;84;27844;-59
2022/10/24 06:28:51;;;;;;;;;;;;;;;8.47;75.62;101755.97;1685692;82;25798;-58
2022/10/24 06:31:19;;;;;;;;;;;;;;;8.53;75.61;101754.72;1693845;82;25817;-58
2022/10/24 06:33:46;;;;;;;;;;;;;;;8.58;75.74;101757.49;1684452;82;25818;-58
2022/10/24 06:36:13;;;;;;;;;;;;;;;8.66;76.01;101747.59;1695760;82;25734;-58
2022/10/24 06:38:39;;;;;;;;;;;;;;;8.76;75.95;101742.01;1703150;82;28283;-59
2022/10/24 06:41:07;;;;;;;;;;;;;;;8.86;76.08;101747.65;1703892;82;25943;-60
2022/10/24 06:43:34;;;;;;;;;;;;;;;8.93;75.91;101740.03;1705698;83;25808;-59
2022/10/24 06:46:06;;;;;;;;;;;;;;;8.99;76.17;101731.59;1734075;82;25758;-59
2022/10/24 06:48:34;;;;;;;;;;;;;;;9.10;76.49;101730.02;1685961;82;26397;-58
2022/10/24 06:51:02;;;;;;;;;;;;;;;9.15;77.09;101720.67;1712687;81;28790;-59
2022/10/24 06:53:29;;;;;;;;;;;;;;;9.23;77.18;101721.50;1739162;82;25808;-58
2022/10/24 06:56:00;;;;;;;;;;;;;;;9.35;77.28;101719.80;1741559;82;25757;-59
2022/10/24 06:58:32;;;;;;;;;;;;;;;9.45;77.42;101722.23;1742277;82;25811;-60
2022/10/24 07:00:58;;;;;;;;;;;;;;;9.58;78.02;101722.75;1740475;82;26656;-58
2022/10/24 07:03:25;;;;;;;;;;;;;;;9.70;77.83;101721.41;1719518;82;27512;-59
2022/10/24 07:05:51;;;;;;;;;;;;;;;9.84;77.87;101731.19;1688702;82;25920;-60
2022/10/24 07:08:18;;;;;;;;;;;;;;;9.99;77.74;101724.34;1742273;81;26130;-60
2022/10/24 07:10:45;;;;;;;;;;;;;;;10.14;77.61;101732.65;1730469;81;26574;-59
2022/10/24 07:13:11;;;;;;;;;;;;;;;10.29;77.49;101740.10;1711619;81;25810;-59
2022/10/24 07:15:37;;;;;;;;;;;;;;;10.45;77.40;101727.79;1712724;82;27615;-59
2022/10/24 07:18:04;;;;;;;;;;;;;;;10.63;77.16;101727.41;1709685;82;25827;-59
2022/10/24 07:20:31;;;;;;;;;;;;;;;10.79;76.91;101723.11;1729248;82;25903;-60
2022/10/24 07:22:57;;;;;;;;;;;;;;;10.96;76.97;101718.66;1712345;82;25839;-58
2022/10/24 07:25:24;;;;;;;;;;;;;;;11.16;76.78;101720.31;1721755;82;25720;-59
2022/10/24 07:27:53;;;;;;;;;;;;;;;11.34;76.70;101717.21;1736601;81;27491;-59
2022/10/24 07:30:18;;;;;;;;;;;;;;;11.47;76.44;101713.92;1728478;81;25801;-59
2022/10/24 07:32:45;;;;;;;;;;;;;;;11.58;76.16;101711.73;1701443;82;25794;-59
2022/10/24 07:35:12;;;;;;;;;;;;;;;11.69;75.75;101706.88;1736116;81;26654;-59
2022/10/24 07:37:39;;;;;;;;;;;;;;;11.79;75.46;101702.95;1722052;81;25786;-59
2022/10/24 07:40:07;;;;;;;;;;;;;;;11.89;75.18;101702.59;1710477;82;27452;-59
2022/10/24 07:42:33;;;;;;;;;;;;;;;11.96;74.55;101704.31;1717972;82;25773;-59
2022/10/24 07:45:01;;;;;;;;;;;;;;;12.01;74.54;101700.27;1731407;82;25789;-60
2022/10/24 07:47:28;;;;;;;;;;;;;;;12.04;73.61;101701.89;1684516;83;25735;-59
2022/10/24 07:49:54;;;;;;;;;;;;;;;12.08;73.86;101698.45;1703729;82;25717;-60
2022/10/24 07:52:21;;;;;;;;;;;;;;;12.17;73.96;101694.52;1689966;83;28363;-59
2022/10/24 07:54:47;;;;;;;;;;;;;;;12.29;73.85;101694.01;1701951;82;25642;-58
2022/10/24 07:57:14;;;;;;;;;;;;;;;12.33;73.30;101698.66;1684660;85;25707;-60
2022/10/24 07:59:40;;;;;;;;;;;;;;;12.40;73.18;101693.16;1687548;82;25752;-60
2022/10/24 08:02:10;;;;;;;;;;;;;;;12.49;73.11;101693.75;1725940;82;25906;-60
2022/10/24 08:04:36;;;;;;;;;;;;;;;12.52;72.17;101699.38;1698305;82;27553;-59
2022/10/24 08:07:02;;;;;;;;;;;;;;;12.52;72.34;101700.22;1734200;81;25697;-58
2022/10/24 08:09:29;;;;;;;;;;;;;;;12.53;72.24;101700.59;1706484;83;25786;-59
2022/10/24 08:11:55;;;;;;;;;;;;;;;12.58;72.33;101704.77;1686462;82;25868;-61
2022/10/24 08:14:22;;;;;;;;;;;;;;;12.61;72.19;101706.72;1685007;82;25897;-61
2022/10/24 08:16:48;;;;;;;;;;;;;;;12.73;72.46;101712.09;1724291;82;27458;-61
2022/10/24 08:19:15;;;;;;;;;;;;;;;12.89;72.13;101712.53;1741810;82;25714;-61
2022/10/24 08:21:41;;;;;;;;;;;;;;;13.07;72.22;101711.96;1718584;82;25776;-62
2022/10/24 08:24:08;;;;;;;;;;;;;;;13.21;71.66;101709.45;1742069;82;27873;-61
2022/10/24 08:26:35;;;;;;;;;;;;;;;13.33;70.56;101704.33;1695466;81;25648;-62
2022/10/24 08:29:03;;;;;;;;;;;;;;;13.44;70.90;101708.86;1706498;82;26683;-62
2022/10/24 08:31:30;;;;;;;;;;;;;;;13.60;70.12;101707.02;1735285;82;25439;-61
2022/10/24 08:33:56;;;;;;;;;;;;;;;13.80;68.51;101702.59;1741749;82;25728;-63
2022/10/24 08:36:26;;;;;;;;;;;;;;;13.93;69.58;101696.97;1737610;82;25858;-62
2022/10/24 08:38:52;;;;;;;;;;;;;;;14.25;70.26;101698.63;1708225;82;25775;-62
2022/10/24 08:41:28;;;;;;;;;;;;;;;14.62;70.29;101695.30;1737908;81;28293;-63
2022/10/24 08:43:59;;;;;;;;;;;;;;;14.90;67.94;101694.16;1723070;82;25953;-61
2022/10/24 08:46:47;;;;;;;;;;;;;;;15.23;67.93;101698.77;1693763;82;25816;-61
2022/10/24 08:49:19;;;;;;;;;;;;;;;15.61;66.08;101694.28;1685509;83;25876;-62
2022/10/24 08:51:49;;;;;;;;;;;;;;;16.13;64.80;101694.33;1722470;82;25837;-61
2022/10/24 08:54:22;;;;;;;;;;;;;;;16.87;64.21;101691.08;1732682;82;27564;-62
2022/10/24 08:56:50;;;;;;;;;;;;;;;17.63;62.82;101686.09;1700727;82;26358;-62
2022/10/24 08:59:18;;;;;;;;;;;;;;;18.46;61.64;101682.41;1686328;82;25473;-61
2022/10/24 09:01:57;;;;;;;;;;;;;;;19.06;59.85;101672.30;1705834;82;26537;-61
2022/10/24 09:04:26;;;;;;;;;;;;;;;19.69;59.78;101669.30;1675061;83;25938;-63
2022/10/24 09:06:53;;;;;;;;;;;;;;;20.29;55.47;101675.27;1724602;82;27615;-62
2022/10/24 09:09:26;;;;;;;;;;;;;;;20.77;56.16;101675.67;1703631;84;27285;-63
2022/10/24 09:11:56;;;;;;;;;;;;;;;21.20;53.61;101675.16;1725240;82;25799;-63
2022/10/24 09:14:28;;;;;;;;;;;;;;;21.59;52.42;101668.66;1736837;82;26235;-62
2022/10/24 09:17:11;;;;;;;;;;;;;;;22.11;54.24;101658.61;1701574;82;25986;-61
2022/10/24 09:19:38;;;;;;;;;;;;;;;22.46;51.10;101653.36;1700023;82;27547;-62
2022/10/24 09:22:06;;;;;;;;;;;;;;;22.47;50.73;101644.09;1729773;82;25860;-62
2022/10/24 09:24:54;;;;;;;;;;;;;;;22.64;49.98;101643.34;1684098;82;25706;-62
2022/10/24 09:27:28;;;;;;;;;;;;;;;22.90;49.45;101637.77;1699431;82;25858;-61
2022/10/24 09:29:57;;;;;;;;;;;;;;;23.18;48.96;101642.47;1695054;84;25709;-61
2022/10/24 09:32:26;;;;;;;;;;;;;;;23.57;46.71;101634.20;1706137;82;27761;-61
2022/10/24 09:34:54;;;;;;;;;;;;;;;24.16;47.09;101638.84;1703337;82;25992;-61
2022/10/24 09:37:39;;;;;;;;;;;;;;;24.71;46.18;101643.45;1705686;82;25774;-61
2022/10/24 09:40:24;;;;;;;;;;;;;;;25.29;44.02;101633.70;1715122;82;26562;-61
2022/10/24 09:43:03;;;;;;;;;;;;;;;25.57;42.52;101627.98;1685488;82;25727;-62
2022/10/24 09:45:38;;;;;;;;;;;;;;;25.69;39.87;101622.64;1731509;82;27482;-61
2022/10/24 09:48:31;;;;;;;;;;;;;;;25.75;41.21;101625.06;1725562;82;25904;-62
2022/10/24 09:50:59;;;;;;;;;;;;;;;26.22;38.55;101621.59;1727965;82;25787;-61
2022/10/24 09:53:34;;;;;;;;;;;;;;;26.79;38.92;101613.94;1718254;82;25949;-62
2022/10/24 09:56:07;;;;;;;;;;;;;;;27.14;39.34;101616.17;1717407;82;26358;-61
2022/10/24 09:58:34;;;;;;;;;;;;;;;27.77;37.50;101604.59;1732740;82;25861;-61
2022/10/24 10:01:05;;;;;;;;;;;;;;;28.28;34.99;101607.16;1716684;82;25721;-62
2022/10/24 10:03:32;;;;;;;;;;;;;;;28.51;35.17;101602.21;1731843;82;25757;-62
2022/10/24 10:06:08;;;;;;;;;;;;;;;28.89;37.38;101601.55;1701401;82;25790;-63
2022/10/24 10:08:35;;;;;;;;;;;;;;;29.24;34.44;101602.63;1732013;82;25733;-62
2022/10/24 10:11:05;;;;;;;;;;;;;;;29.74;34.27;101599.34;1697183;83;27501;-62
2022/10/24 10:13:37;;;;;;;;;;;;;;;30.25;32.33;101588.98;1700235;84;26118;-61
2022/10/24 10:16:06;;;;;;;;;;;;;;;30.64;32.52;101586.91;1723234;82;25801;-61
2022/10/24 10:18:41;;;;;;;;;;;;;;;31.16;33.20;101588.59;1704081;82;26745;-61
2022/10/24 10:21:14;;;;;;;;;;;;;;;31.26;29.86;101582.33;1714452;82;25819;-61
2022/10/24 10:23:53;;;;;;;;;;;;;;;31.52;30.58;101579.37;1710484;82;27725;-61
2022/10/24 10:26:26;;;;;;;;;;;;;;;31.79;30.96;101574.45;1719343;82;25795;-62
2022/10/24 10:28:56;;;;;;;;;;;;;;;32.05;28.22;101564.42;1741442;82;25684;-61
2022/10/24 10:31:34;;;;;;;;;;;;;;;32.20;28.96;101565.14;1741612;81;25894;-62
2022/10/24 10:34:28;;;;;;;;;;;;;;;32.43;30.27;101569.56;1718994;81;25778;-61
2022/10/24 10:37:06;;;;;;;;;;;;;;;32.64;29.10;101562.78;1730596;82;27404;-62
2022/10/24 10:40:04;;;;;;;;;;;;;;;32.84;28.41;101557.94;1736763;82;25795;-62
2022/10/24 10:42:50;;;;;;;;;;;;;;;33.26;28.58;101549.84;1683833;84;26445;-61
2022/10/24 10:45:40;;;;;;;;;;;;;;;33.45;27.23;101543.27;1702851;82;25800;-62
2022/10/24 10:48:22;;;;;;;;;;;;;;;33.32;26.63;101533.41;1684421;85;26098;-61
2022/10/24 10:51:02;;;;;;;;;;;;;;;33.49;26.64;101530.44;1702904;82;27571;-62
2022/10/24 10:53:42;;;;;;;;;;;;;;;33.86;26.76;101526.67;1734297;81;25721;-60
2022/10/24 10:56:30;;;;;;;;;;;;;;;33.64;25.69;101533.84;1701477;82;26139;-61
2022/10/24 10:59:12;;;;;;;;;;;;;;;33.60;24.90;101524.36;1697465;82;26324;-62
2022/10/24 11:01:59;;;;;;;;;;;;;;;33.41;24.92;101522.05;1704793;82;25687;-62
2022/10/24 11:04:44;;;;;;;;;;;;;;;33.34;25.99;101515.33;1685846;82;27451;-61
2022/10/24 11:07:23;;;;;;;;;;;;;;;33.45;26.10;101516.20;1740577;82;25945;-61
2022/10/24 11:09:52;;;;;;;;;;;;;;;33.67;25.74;101517.39;1739108;81;25735;-61
2022/10/24 11:12:24;;;;;;;;;;;;;;;33.94;25.59;101520.55;1706049;82;26387;-62
2022/10/24 11:15:03;;;;;;;;;;;;;;;34.05;25.26;101513.59;1692012;83;25802;-61
2022/10/24 11:17:34;;;;;;;;;;;;;;;34.02;25.01;101507.44;1731128;82;27688;-62
2022/10/24 11:20:19;;;;;;;;;;;;;;;33.97;25.40;101504.66;1713047;82;25806;-61
2022/10/24 11:22:51;;;;;;;;;;;;;;;33.80;24.67;101501.24;1742672;81;25728;-62
2022/10/24 11:25:36;;;;;;;;;;;;;;;33.20;24.31;101487.64;1731007;82;25919;-61
2022/10/24 11:28:18;;;;;;;;;;;;;;;32.96;24.30;101483.06;1717513;82;25458;-62
2022/10/24 11:30:57;;;;;;;;;;;;;;;32.54;25.82;101485.58;1728493;82;28844;-61
2022/10/24 11:33:27;;;;;;;;;;;;;;;32.11;25.04;101481.83;1717226;82;25818;-62
2022/10/24 11:36:03;;;;;;;;;;;;;;;31.79;24.65;101478.48;1697770;82;25638;-61
2022/10/24 11:38:32;;;;;;;;;;;;;;;31.37;25.42;101475.75;1732398;82;25808;-60
2022/10/24 11:41:02;;;;;;;;;;;;;;;31.06;25.41;101468.41;1726054;82;25759;-62
2022/10/24 11:43:37;;;;;;;;;;;;;;;30.81;26.08;101461.38;1712483;82;27568;-61
2022/10/24 11:46:08;;;;;;;;;;;;;;;30.60;25.69;101451.91;1705559;82;26645;-62
2022/10/24 11:48:41;;;;;;;;;;;;;;;30.35;26.74;101450.40;1703727;82;25835;-62
2022/10/24 11:51:29;;;;;;;;;;;;;;;30.12;26.12;101449.45;1693350;83;25791;-61
2022/10/24 11:54:02;;;;;;;;;;;;;;;29.78;26.57;101444.41;1679153;85;25804;-61
2022/10/24 11:56:47;;;;;;;;;;;;;;;29.60;26.61;101438.51;1687611;82;27494;-61
2022/10/24 11:59:22;;;;;;;;;;;;;;;29.36;27.30;101426.15;1710383;82;25748;-60
2022/10/24 12:02:13;;;;;;;;;;;;;;;29.32;27.03;101421.64;1726477;82;25727;-61
2022/10/24 12:05:01;;;;;;;;;;;;;;;29.17;27.25;101419.38;1694843;82;26738;-60
2022/10/24 12:07:52;;;;;;;;;;;;;;;29.00;26.93;101415.69;1695935;82;25808;-61
2022/10/24 12:10:45;;;;;;;;;;;;;;;28.83;26.56;101412.30;1710351;81;27633;-61
2022/10/24 12:13:32;;;;;;;;;;;;;;;28.53;26.40;101408.27;1686854;85;25770;-61
2022/10/24 12:16:08;;;;;;;;;;;;;;;28.19;26.58;101403.33;1710550;83;25725;-61
2022/10/24 12:18:46;;;;;;;;;;;;;;;27.80;26.68;101404.23;1708809;83;25947;-61
2022/10/24 12:21:18;;;;;;;;;;;;;;;27.43;26.75;101406.59;1699377;84;25717;-61
2022/10/24 12:23:53;;;;;;;;;;;;;;;27.03;26.75;101394.64;1699502;84;27544;-60
2022/10/24 12:26:25;;;;;;;;;;;;;;;26.74;27.18;101387.95;1676557;84;25838;-62
2022/10/24 12:28:58;;;;;;;;;;;;;;;26.76;27.10;101383.05;1687309;84;25472;-61
2022/10/24 12:31:29;;;;;;;;;;;;;;;26.84;27.23;101379.50;1700377;83;25806;-62
2022/10/24 12:34:18;;;;;;;;;;;;;;;27.03;27.37;101377.55;1702283;83;26382;-60
2022/10/24 12:37:20;;;;;;;;;;;;;;;27.40;27.01;101378.56;1704581;82;28153;-61
2022/10/24 12:39:48;;;;;;;;;;;;;;;27.86;27.18;101384.48;1691713;82;25791;-60
2022/10/24 12:42:24;;;;;;;;;;;;;;;28.45;27.30;101384.55;1700408;84;25525;-61
2022/10/24 12:45:07;;;;;;;;;;;;;;;28.64;25.61;101384.42;1695373;84;25911;-60
2022/10/24 12:47:39;;;;;;;;;;;;;;;28.68;24.59;101381.48;1694461;82;25488;-60
2022/10/24 12:50:25;;;;;;;;;;;;;;;28.61;25.92;101381.61;1698478;83;27403;-60
2022/10/24 12:53:16;;;;;;;;;;;;;;;28.80;25.75;101378.72;1697410;84;25777;-61
2022/10/24 12:55:49;;;;;;;;;;;;;;;28.80;25.83;101384.25;1697897;84;25805;-61
2022/10/24 12:58:36;;;;;;;;;;;;;;;29.18;25.75;101380.89;1725201;82;25794;-61
2022/10/24 13:01:23;;;;;;;;;;;;;;;29.34;24.57;101376.52;1679103;85;25960;-62
2022/10/24 13:04:02;;;;;;;;;;;;;;;29.51;24.25;101375.16;1678899;85;27495;-60